Frederick, Illinois
Current Conditions -  °F | °C
As of 8:55 PM on Wednesday 22 Oct 2014 (Local Time) from KIJX Reporting Station
Clear Clear  
Wind Chill: 43°   Ceiling: Unl
Heat Index: 46°   Visibility: 10mi
Dew Point: 39°   Wind: 6mph
Humidity: 75%   Direction: 110°ESE
Pressure: 30.24"   Gusts: NA
Location:  40.07°N, 90.43°W
Report Text: KIJX 230155Z AUTO 11005KT 10SM CLR 08/04 A3024 RMK AO2 T00780037
Loading
Personal Weather Stations






























Interactive Weather Map
Tropical Storm Tracking
New forecast layout! Learn more

10-Day Weather Forecast

Advertisements
Track Severe Weather on mobile